Coeymans Hollow, New York
Current Conditions -  °F | °C
As of 6:51 PM on Wednesday 26 Nov 2014 (Local Time) from KALB Reporting Station
Light Snow Light Snow  
Wind Chill: 22°   Ceiling: 600
Heat Index: 32°   Visibility: 1mi
Dew Point: 29°   Wind: 15mph
Humidity: 88%   Direction: 360°N
Pressure: 29.94"   Gusts: NA
Location:  42.47°N, 73.89°W
Report Text: KALB 262351Z 36013KT 1SM R01/P6000FT -SN BR OVC006 00/M02 A2994 RMK AO2 SLP142 SNICR 1/7 4/007 P0007 60041 T00001017 10006 20000 58025 $
Loading
Personal Weather Stations






























Interactive Weather Map New forecast layout! Learn more

10-Day Weather Forecast

Advertisements
Track Severe Weather on mobile